Weather at Spokane International Airport

Public forecast

Using degrees Fahrenheit for public forecast. Weather courtesy of forecast.io.

Current aviation weather report (METAR) for Spokane International Airport

Retrieved 2020/10/25 15:53 UTC (52 minutes ago):

KGEG 251553Z 01004KT 10SM FEW200 M08/M16 A3055 RMK AO2 SLP382 T10781156

Aviation forecast (TAF) for Spokane International Airport

Retrieved 2020/10/25 12:33 UTC (4 hours ago):

TAF KGEG 251130Z 2512/2612 03011KT P6SM SKC FM252000 04007KT P6SM FEW250 FM260200 15005KT P6SM SCT250 FM260700 14005KT P6SM SCT150 BKN200